Welcome to Northern Hawkes Bay. New Zealand.
PWS Header
      nz Flag



Hit Counter


W3C Valid W3C Valid logo


    Wairoa

Select any of the Stations below to visit their websites.










Historic Data from Weather Underground
Select the location of interest below. Wairoa is the default. Please have patience, this Data is slow to load in.
Northern Hawkes Bay Historical Data
Daily Summary for January 10, 2017 Units:  English    Metric   Both
« Previous Day
Next Day »
Daily Weekly Monthly Yearly Custom
  High: Low: Average:
Temperature: 86.4 °F 63.5 °F 73.2 °F
Dew Point: 63.5 °F 53.4 °F 57.6 °F
Humidity: 91% 34% 60%
Wind Speed: 13mph 0mph 4.4mph
Wind Gust: 18.3mph - -
Wind- - SW
Pressure: 29.9 in 29.7 in -
Precipitation: 0 in    
Historical Graphs
 
 
Tabular Data for January 10, 2017
Time Temperature Dew Point Pressure Wind Wind Speed Wind Gust Humidity Rainfall Rate (Hourly) solar
00:02 65.3 °F 55.2 °F 29.8 in NNE 3.8 mph 6 mph 70% 0 in 0 W/m2
00:07 65.7 °F 55.2 °F 29.8 in North 3.1 mph 6 mph 69% 0 in 0 W/m2
00:12 65.8 °F 55 °F 29.8 in North 3.8 mph 6.9 mph 68% 0 in 0 W/m2
00:17 66 °F 54.9 °F 29.8 in North 3.8 mph 7.6 mph 67% 0 in 0 W/m2
00:22 66.4 °F 54.3 °F 29.8 in NNW 4.5 mph 9.2 mph 65% 0 in 0 W/m2
00:27 66.6 °F 54 °F 29.8 in NNW 6.9 mph 9.8 mph 64% 0 in 0 W/m2
00:32 66.9 °F 54.3 °F 29.8 in NW 3.8 mph 11.4 mph 64% 0 in 0 W/m2
00:37 67.1 °F 54.5 °F 29.8 in NW 3.1 mph 11.4 mph 64% 0 in 0 W/m2
00:42 66.7 °F 54.1 °F 29.8 in NNW 4.5 mph 9.8 mph 64% 0 in 0 W/m2
00:47 66.9 °F 54.3 °F 29.8 in NNW 3.8 mph 8.3 mph 64% 0 in 0 W/m2
00:52 66.2 °F 54.1 °F 29.8 in North 3.8 mph 8.3 mph 65% 0 in 0 W/m2
00:57 65.3 °F 54.1 °F 29.8 in North 3.1 mph 6.9 mph 67% 0 in 0 W/m2
01:02 64.9 °F 54.1 °F 29.8 in NNE 1.6 mph 6.9 mph 68% 0 in 0 W/m2
01:07 64.8 °F 54 °F 29.8 in North 3.1 mph 6 mph 68% 0 in 0 W/m2
01:12 64.9 °F 54.1 °F 29.8 in NNW 4.5 mph 6.9 mph 68% 0 in 0 W/m2
01:17 65.3 °F 54.5 °F 29.8 in NNW 5.4 mph 9.8 mph 68% 0 in 0 W/m2
01:22 65.5 °F 54.3 °F 29.8 in NNW 4.5 mph 9.8 mph 67% 0 in 0 W/m2
01:27 66 °F 54.3 °F 29.8 in NNW 8.3 mph 10.7 mph 66% 0 in 0 W/m2
01:32 66.2 °F 54.1 °F 29.8 in NNW 6 mph 12.1 mph 65% 0 in 0 W/m2
01:37 66.4 °F 54 °F 29.8 in NNW 6 mph 13.6 mph 64% 0 in 0 W/m2
01:46 66.6 °F 54 °F 29.8 in North 5.4 mph 10.7 mph 64% 0 in 0 W/m2
01:51 66.4 °F 54 °F 29.8 in North 3.1 mph 10.7 mph 64% 0 in 0 W/m2
01:56 66.2 °F 53.8 °F 29.8 in North 6 mph 10.7 mph 64% 0 in 0 W/m2
02:01 66.2 °F 54.1 °F 29.8 in North 3.1 mph 10.7 mph 65% 0 in 0 W/m2
02:06 66 °F 54.3 °F 29.8 in NNW 4.5 mph 10.7 mph 66% 0 in 0 W/m2
02:26 65.7 °F 54 °F 29.8 in North 6.9 mph 9.2 mph 66% 0 in 0 W/m2
02:31 65.8 °F 54.1 °F 29.8 in NNW 6.9 mph 12.1 mph 66% 0 in 0 W/m2
02:36 65.5 °F 53.8 °F 29.8 in North 2.2 mph 12.1 mph 66% 0 in 0 W/m2
02:41 65.1 °F 54 °F 29.8 in North 3.1 mph 9.8 mph 67% 0 in 0 W/m2
02:46 64.8 °F 53.6 °F 29.8 in North 3.8 mph 9.2 mph 67% 0 in 0 W/m2
02:51 64.6 °F 53.4 °F 29.8 in North 2.2 mph 9.2 mph 67% 0 in 0 W/m2
02:56 64.4 °F 53.6 °F 29.8 in North 1.6 mph 6 mph 68% 0 in 0 W/m2
03:01 64.2 °F 54 °F 29.8 in North 3.1 mph 6 mph 69% 0 in 0 W/m2
03:06 64.2 °F 54 °F 29.8 in NNW 3.1 mph 6 mph 69% 0 in 0 W/m2
03:11 64 °F 54.1 °F 29.8 in NNW 2.2 mph 6.9 mph 70% 0 in 0 W/m2
03:16 63.9 °F 54 °F 29.8 in North 2.2 mph 6.9 mph 70% 0 in 0 W/m2
03:21 64 °F 54.1 °F 29.8 in North 2.2 mph 6.9 mph 70% 0 in 0 W/m2
03:26 64.2 °F 54.1 °F 29.8 in North 2.2 mph 6 mph 70% 0 in 0 W/m2
03:31 64.4 °F 53.6 °F 29.8 in NNW 0.7 mph 5.4 mph 68% 0 in 0 W/m2
03:36 64.6 °F 54.1 °F 29.8 in North 3.8 mph 6.9 mph 69% 0 in 0 W/m2
03:41 64.9 °F 54.1 °F 29.7 in North 3.8 mph 6.9 mph 68% 0 in 0 W/m2
03:46 64.8 °F 54 °F 29.7 in NNW 5.4 mph 9.2 mph 68% 0 in 0 W/m2
03:51 65.1 °F 54.3 °F 29.8 in North 4.5 mph 9.8 mph 68% 0 in 0 W/m2
03:56 65.3 °F 54.5 °F 29.7 in North 5.4 mph 12.1 mph 68% 0 in 0 W/m2
04:01 65.5 °F 54.3 °F 29.7 in North 5.4 mph 12.1 mph 67% 0 in 0 W/m2
04:06 65.5 °F 54.3 °F 29.7 in North 2.2 mph 12.1 mph 67% 0 in 0 W/m2
04:11 65.7 °F 54.3 °F 29.7 in North 4.5 mph 9.8 mph 67% 0 in 0 W/m2
04:16 65.7 °F 54.3 °F 29.7 in NNW 5.4 mph 9.8 mph 67% 0 in 0 W/m2
04:21 65.7 °F 54.3 °F 29.7 in NNW 6 mph 10.7 mph 67% 0 in 0 W/m2
04:26 65.7 °F 54.9 °F 29.7 in North 6 mph 10.7 mph 68% 0 in 0 W/m2
04:31 65.3 °F 54.5 °F 29.7 in North 6 mph 10.7 mph 68% 0 in 0 W/m2
04:36 65.1 °F 54.3 °F 29.7 in North 5.4 mph 10.7 mph 68% 0 in 0 W/m2
04:41 64.9 °F 54.5 °F 29.7 in NNW 7.6 mph 9.2 mph 69% 0 in 0 W/m2
04:46 64.9 °F 54.5 °F 29.7 in NNW 3.8 mph 9.2 mph 69% 0 in 0 W/m2
04:51 64.9 °F 54.5 °F 29.7 in North 4.5 mph 9.2 mph 69% 0 in 0 W/m2
04:56 64.8 °F 54.3 °F 29.7 in North 3.8 mph 11.4 mph 69% 0 in 0 W/m2
05:01 64.9 °F 54.5 °F 29.7 in North 4.5 mph 11.4 mph 69% 0 in 0 W/m2
05:06 64.9 °F 54.5 °F 29.7 in North 5.4 mph 10.7 mph 69% 0 in 0 W/m2
05:11 64.9 °F 54.5 °F 29.7 in NNW 4.5 mph 10.7 mph 69% 0 in 0 W/m2
05:16 64.8 °F 54.9 °F 29.7 in NNW 4.5 mph 9.2 mph 70% 0 in 0 W/m2
05:21 64.6 °F 54.7 °F 29.7 in NNW 4.5 mph 9.2 mph 70% 0 in 0 W/m2
05:26 64.8 °F 54.9 °F 29.7 in NW 6 mph 9.8 mph 70% 0 in 0 W/m2
05:31 64.8 °F 54.9 °F 29.7 in NNW 5.4 mph 9.8 mph 70% 0 in 0 W/m2
05:36 64.8 °F 54.9 °F 29.7 in NNW 5.4 mph 9.8 mph 70% 0 in 0 W/m2
05:41 64.2 °F 55 °F 29.7 in NNW 4.5 mph 9.2 mph 72% 0 in 0 W/m2
05:46 63.9 °F 54.7 °F 29.7 in NNW 5.4 mph 9.2 mph 72% 0 in 0 W/m2
05:51 63.7 °F 54.9 °F 29.7 in NNW 1.6 mph 9.2 mph 73% 0 in 1 W/m2
06:01 63.5 °F 54.7 °F 29.8 in NNW 3.8 mph 6.9 mph 73% 0 in 6 W/m2
06:06 63.7 °F 54.9 °F 29.8 in North 1.6 mph 6.9 mph 73% 0 in 10 W/m2
06:11 64 °F 55.2 °F 29.8 in North 4.5 mph 7.6 mph 73% 0 in 13 W/m2
06:16 64.2 °F 55.4 °F 29.8 in NNE 4.5 mph 7.6 mph 73% 0 in 16 W/m2
06:21 64.8 °F 55.6 °F 29.8 in NNE 4.5 mph 8.3 mph 72% 0 in 20 W/m2
06:26 65.3 °F 56.1 °F 29.8 in NNE 3.8 mph 9.2 mph 72% 0 in 25 W/m2
06:31 65.8 °F 56.1 °F 29.8 in North 4.5 mph 9.2 mph 71% 0 in 27 W/m2
06:36 66.4 °F 55.9 °F 29.8 in NNW 5.4 mph 9.2 mph 69% 0 in 46 W/m2
06:41 67.5 °F 56.7 °F 29.8 in North 5.4 mph 8.3 mph 68% 0 in 60 W/m2
06:46 68.4 °F 56.7 °F 29.8 in NNW 6 mph 9.8 mph 66% 0 in 69 W/m2
06:51 69.1 °F 56.8 °F 29.8 in NNW 6 mph 10.7 mph 65% 0 in 82 W/m2
06:56 69.3 °F 56.7 °F 29.8 in North 6.9 mph 13 mph 64% 0 in 92 W/m2
07:01 69.6 °F 57.4 °F 29.8 in NNW 6.9 mph 13 mph 65% 0 in 106 W/m2
07:11 71.1 °F 57.4 °F 29.8 in NNW 6.9 mph 12.1 mph 62% 0 in 129 W/m2
07:16 71.6 °F 57.6 °F 29.8 in NW 6 mph 11.4 mph 61% 0 in 143 W/m2
07:21 72.1 °F 57.6 °F 29.8 in NW 8.3 mph 11.4 mph 60% 0 in 160 W/m2
07:26 72.3 °F 57.7 °F 29.8 in NW 6.9 mph 13 mph 60% 0 in 171 W/m2
07:31 72.5 °F 57.9 °F 29.8 in NNW 7.6 mph 13 mph 60% 0 in 183 W/m2
07:36 72.7 °F 57.6 °F 29.8 in NW 6.9 mph 14.5 mph 59% 0 in 195 W/m2
07:41 73.2 °F 58.1 °F 29.8 in NW 8.3 mph 14.5 mph 59% 0 in 207 W/m2
07:46 73.4 °F 57.4 °F 29.8 in NW 5.4 mph 13.6 mph 57% 0 in 223 W/m2
07:51 73.8 °F 57.6 °F 29.8 in NW 4.5 mph 13.6 mph 57% 0 in 237 W/m2
07:56 74.1 °F 57.9 °F 29.8 in NW 7.6 mph 13 mph 57% 0 in 254 W/m2
08:06 74.5 °F 57.7 °F 29.8 in NW 6 mph 13 mph 56% 0 in 280 W/m2
08:11 75 °F 58.3 °F 29.8 in NW 6.9 mph 11.4 mph 56% 0 in 297 W/m2
08:16 75.6 °F 58.3 °F 29.8 in NW 8.3 mph 11.4 mph 55% 0 in 308 W/m2
08:21 75.6 °F 57.7 °F 29.8 in NW 7.6 mph 14.5 mph 54% 0 in 321 W/m2
08:26 75.9 °F 58.1 °F 29.8 in NNW 6 mph 14.5 mph 54% 0 in 341 W/m2
08:31 76.6 °F 58.8 °F 29.8 in NNW 5.4 mph 13 mph 54% 0 in 357 W/m2
08:41 76.5 °F 58.6 °F 29.8 in North 6.9 mph 11.4 mph 54% 0 in 393 W/m2
08:46 77.4 °F 57.9 °F 29.8 in NNW 4.5 mph 10.7 mph 51% 0 in 413 W/m2
08:51 77.7 °F 57.6 °F 29.8 in NW 4.5 mph 10.7 mph 50% 0 in 445 W/m2
08:56 78.6 °F 57.9 °F 29.8 in North 4.5 mph 9.8 mph 49% 0 in 496 W/m2
09:01 78.6 °F 57.4 °F 29.8 in North 9.2 mph 10.7 mph 48% 0 in 495 W/m2
09:06 78.3 °F 57 °F 29.8 in NNW 6.9 mph 12.1 mph 48% 0 in 493 W/m2
09:11 78.6 °F 57.4 °F 29.8 in NNW 12.1 mph 15.2 mph 48% 0 in 521 W/m2
09:21 78.3 °F 57.6 °F 29.8 in NNW 4.5 mph 16.8 mph 49% 0 in 552 W/m2
09:26 78.6 °F 56.7 °F 29.8 in NNW 7.6 mph 12.1 mph 47% 0 in 547 W/m2
09:31 79 °F 56.5 °F 29.8 in NNW 6.9 mph 12.1 mph 46% 0 in 539 W/m2
09:36 79 °F 56.5 °F 29.8 in NNW 6 mph 12.1 mph 46% 0 in 581 W/m2
09:41 79.7 °F 57.7 °F 29.8 in NNW 3.8 mph 10.7 mph 47% 0 in 636 W/m2
09:51 80.4 °F 57.2 °F 29.8 in NW 3.1 mph 9.8 mph 45% 0 in 682 W/m2
10:22 82.8 °F 56.7 °F 29.8 in NW 6.9 mph 12.1 mph 41% 0 in 834 W/m2
10:27 81.7 °F 55.8 °F 29.8 in NNW 2.2 mph 12.1 mph 41% 0 in 837 W/m2
10:32 82.4 °F 57 °F 29.8 in WNW 4.5 mph 12.1 mph 42% 0 in 773 W/m2
10:37 82.4 °F 57 °F 29.8 in West 6 mph 11.4 mph 42% 0 in 800 W/m2
10:42 81.9 °F 56.7 °F 29.8 in WNW 2.2 mph 11.4 mph 42% 0 in 891 W/m2
10:47 82.8 °F 56.7 °F 29.8 in NW 3.1 mph 11.4 mph 41% 0 in 896 W/m2
10:52 83.5 °F 57.4 °F 29.8 in West 6 mph 9.2 mph 41% 0 in 237 W/m2
10:57 82.8 °F 56.7 °F 29.8 in West 1.6 mph 8.3 mph 41% 0 in 220 W/m2
11:02 82.4 °F 57.7 °F 29.8 in West 3.8 mph 7.6 mph 43% 0 in 1004 W/m2
11:12 82.9 °F 59.5 °F 29.8 in SW 5.4 mph 11.4 mph 45% 0 in 1030 W/m2
11:17 82 °F 57.9 °F 29.8 in SSW 7.6 mph 9.8 mph 44% 0 in 989 W/m2
11:22 81.5 °F 57.6 °F 29.8 in SSW 7.6 mph 12.1 mph 44% 0 in 656 W/m2
11:28 81.5 °F 57.6 °F 29.8 in SSW 9.8 mph 13 mph 44% 0 in 966 W/m2
11:35 82 °F 57.9 °F 29.8 in SSW 6 mph 13 mph 44% 0 in 1055 W/m2
11:40 81.9 °F 58.5 °F 29.8 in SSW 8.3 mph 13 mph 45% 0 in 987 W/m2
11:45 81.5 °F 58.3 °F 29.8 in SSW 6.9 mph 13 mph 45% 0 in 979 W/m2
11:51 81 °F 58.8 °F 29.8 in SSW 8.3 mph 13 mph 47% 0 in 1018 W/m2
11:56 79.9 °F 59.5 °F 29.8 in SSW 6.9 mph 13 mph 50% 0 in 1026 W/m2
12:01 80.2 °F 58.3 °F 29.8 in South 9.8 mph 14.5 mph 47% 0 in 944 W/m2
12:06 79.9 °F 58.5 °F 29.8 in SSW 9.2 mph 15.9 mph 48% 0 in 985 W/m2
12:11 80.1 °F 58.1 °F 29.8 in SSW 13 mph 17.4 mph 47% 0 in 973 W/m2
12:16 80.1 °F 56.8 °F 29.8 in SW 11.4 mph 18.3 mph 45% 0 in 971 W/m2
12:21 79.7 °F 55.9 °F 29.8 in SW 13 mph 18.3 mph 44% 0 in 973 W/m2
12:39 79.5 °F 57.6 °F 29.8 in SSW 7.6 mph 15.9 mph 47% 0 in 962 W/m2
12:44 79.3 °F 56.8 °F 29.8 in SSW 7.6 mph 13 mph 46% 0 in 924 W/m2
12:49 79.2 °F 58.5 °F 29.8 in South 6 mph 13 mph 49% 0 in 961 W/m2
12:54 78.3 °F 57.6 °F 29.8 in South 7.6 mph 10.7 mph 49% 0 in 966 W/m2
12:59 77.7 °F 57 °F 29.8 in South 6.9 mph 10.7 mph 49% 0 in 974 W/m2
13:05 78.6 °F 58.5 °F 29.8 in South 3.8 mph 11.4 mph 50% 0 in 965 W/m2
13:09 79.5 °F 57.6 °F 29.8 in South 4.5 mph 11.4 mph 47% 0 in 936 W/m2
13:19 78.8 °F 59.2 °F 29.8 in South 5.4 mph 9.2 mph 51% 0 in 857 W/m2
13:24 78.6 °F 59.5 °F 29.8 in South 3.8 mph 9.2 mph 52% 0 in 911 W/m2
13:29 79.9 °F 59.5 °F 29.8 in South 3.8 mph 8.3 mph 50% 0 in 779 W/m2
13:34 80.1 °F 57.6 °F 29.8 in SSE 6.9 mph 9.2 mph 46% 0 in 1019 W/m2
13:40 79.7 °F 58.3 °F 29.8 in South 5.4 mph 9.2 mph 48% 0 in 849 W/m2
13:44 79.9 °F 56.7 °F 29.8 in South 2.2 mph 9.2 mph 45% 0 in 918 W/m2
13:49 81.1 °F 57.2 °F 29.8 in South 3.1 mph 8.3 mph 44% 0 in 869 W/m2
13:55 81.5 °F 56.8 °F 29.8 in SSE 6 mph 9.2 mph 43% 0 in 840 W/m2
14:00 80.6 °F 56.1 °F 29.8 in SSE 3.8 mph 9.2 mph 43% 0 in 698 W/m2
14:05 81 °F 55.8 °F 29.8 in SSE 2.2 mph 9.2 mph 42% 0 in 868 W/m2
14:10 81.5 °F 56.1 °F 29.8 in SSE 4.5 mph 9.2 mph 42% 0 in 885 W/m2
14:15 82.6 °F 57.9 °F 29.8 in SE 3.1 mph 9.2 mph 43% 0 in 509 W/m2
14:21 82.6 °F 55.9 °F 29.8 in SE 3.8 mph 7.6 mph 40% 0 in 539 W/m2
14:26 81.9 °F 55.9 °F 29.8 in South 1.6 mph 9.8 mph 41% 0 in 831 W/m2
14:31 82.9 °F 56.1 °F 29.8 in SSE 4.5 mph 9.8 mph 40% 0 in 931 W/m2
14:36 82.9 °F 57.6 °F 29.8 in SSE 2.2 mph 8.3 mph 42% 0 in 648 W/m2
14:41 82.6 °F 56.5 °F 29.8 in SE 3.8 mph 8.3 mph 41% 0 in 505 W/m2
14:46 82.2 °F 56.1 °F 29.8 in SSE 4.5 mph 7.6 mph 41% 0 in 577 W/m2
14:51 82.4 °F 56.5 °F 29.8 in SSE 2.2 mph 6.9 mph 41% 0 in 541 W/m2
14:56 82.2 °F 56.1 °F 29.8 in SE 3.1 mph 7.6 mph 41% 0 in 524 W/m2
15:01 81.1 °F 54.7 °F 29.8 in SSE 2.2 mph 7.6 mph 40% 0 in 807 W/m2
15:06 82.4 °F 55.8 °F 29.8 in SE 3.1 mph 7.6 mph 40% 0 in 571 W/m2
15:11 83.5 °F 55.9 °F 29.8 in SE 3.1 mph 6.9 mph 39% 0 in 839 W/m2
15:16 83.7 °F 56.1 °F 29.8 in SE 3.8 mph 6.9 mph 39% 0 in 650 W/m2
15:21 83.5 °F 55.9 °F 29.8 in SE 3.8 mph 6.9 mph 39% 0 in 709 W/m2
15:26 83.5 °F 55.9 °F 29.8 in SE 3.8 mph 6.9 mph 39% 0 in 668 W/m2
15:31 84.6 °F 56.8 °F 29.8 in SSE 2.2 mph 6.9 mph 39% 0 in 755 W/m2
15:36 84.9 °F 56.5 °F 29.8 in SE 1.6 mph 6 mph 38% 0 in 705 W/m2
15:41 85.8 °F 55.8 °F 29.8 in ESE 3.1 mph 6 mph 36% 0 in 717 W/m2
15:46 85.6 °F 56.5 °F 29.8 in SE 3.8 mph 6.9 mph 37% 0 in 717 W/m2
15:51 85.8 °F 55.8 °F 29.8 in SE 4.5 mph 7.6 mph 36% 0 in 721 W/m2
15:56 85.3 °F 55.4 °F 29.8 in ESE 2.2 mph 9.2 mph 36% 0 in 719 W/m2
16:01 85.8 °F 55.8 °F 29.8 in SE 3.1 mph 9.2 mph 36% 0 in 657 W/m2
16:06 86 °F 54.3 °F 29.8 in SSE 3.1 mph 7.6 mph 34% 0 in 689 W/m2
16:11 86.4 °F 54.7 °F 29.8 in SE 4.5 mph 7.6 mph 34% 0 in 697 W/m2
16:16 85.8 °F 55 °F 29.8 in ESE 3.1 mph 8.3 mph 35% 0 in 676 W/m2
16:21 86.2 °F 54.7 °F 29.8 in ESE 3.8 mph 8.3 mph 34% 0 in 667 W/m2
16:27 86.4 °F 55.6 °F 29.8 in SE 4.5 mph 9.2 mph 35% 0 in 650 W/m2
16:32 85.6 °F 56.5 °F 29.8 in SE 4.5 mph 9.8 mph 37% 0 in 637 W/m2
16:39 84 °F 57 °F 29.8 in SE 6 mph 13.6 mph 40% 0 in 281 W/m2
16:44 81.7 °F 56.5 °F 29.8 in ESE 5.4 mph 13.6 mph 42% 0 in 174 W/m2
16:49 80.2 °F 57 °F 29.8 in ESE 4.5 mph 12.1 mph 45% 0 in 340 W/m2
16:59 81.1 °F 57.2 °F 29.8 in ESE 3.8 mph 11.4 mph 44% 0 in 547 W/m2
17:04 80.8 °F 56.8 °F 29.8 in ESE 6 mph 14.5 mph 44% 0 in 503 W/m2
17:09 80.2 °F 57 °F 29.8 in ESE 5.4 mph 14.5 mph 45% 0 in 366 W/m2
17:14 80.6 °F 56.7 °F 29.8 in ESE 6 mph 13.6 mph 44% 0 in 509 W/m2
17:19 80.6 °F 56.7 °F 29.8 in ESE 5.4 mph 12.1 mph 44% 0 in 386 W/m2
17:24 79.3 °F 56.8 °F 29.8 in ESE 6 mph 12.1 mph 46% 0 in 390 W/m2
17:29 79.5 °F 57 °F 29.8 in ESE 6.9 mph 12.1 mph 46% 0 in 231 W/m2
17:34 78.4 °F 57.2 °F 29.8 in East 5.4 mph 14.5 mph 48% 0 in 227 W/m2
17:39 77.9 °F 57.2 °F 29.8 in East 7.6 mph 14.5 mph 49% 0 in 219 W/m2
17:44 77.5 °F 57.6 °F 29.8 in ESE 3.8 mph 11.4 mph 50% 0 in 337 W/m2
17:49 77.7 °F 56.5 °F 29.8 in ESE 3.1 mph 10.7 mph 48% 0 in 427 W/m2
17:54 78.8 °F 57.6 °F 29.8 in ESE 6.9 mph 10.7 mph 48% 0 in 471 W/m2
18:00 79 °F 57 °F 29.8 in ESE 5.4 mph 12.1 mph 47% 0 in 322 W/m2
18:05 79.3 °F 57.4 °F 29.8 in East 9.8 mph 13.6 mph 47% 0 in 363 W/m2
18:10 79.9 °F 57.9 °F 29.8 in SE 4.5 mph 13.6 mph 47% 0 in 359 W/m2
18:15 80.4 °F 59 °F 29.8 in SSE 5.4 mph 13.6 mph 48% 0 in 239 W/m2
18:20 80.2 °F 59.4 °F 29.8 in SSE 5.4 mph 10.7 mph 49% 0 in 313 W/m2
18:25 79.9 °F 58.5 °F 29.8 in SSE 6 mph 10.7 mph 48% 0 in 310 W/m2
18:30 79.7 °F 58.8 °F 29.8 in SSE 3.8 mph 10.7 mph 49% 0 in 251 W/m2
18:35 78.8 °F 59.7 °F 29.8 in SSE 4.5 mph 11.4 mph 52% 0 in 146 W/m2
18:40 77.7 °F 60.8 °F 29.8 in SE 3.1 mph 11.4 mph 56% 0 in 281 W/m2
18:45 77.4 °F 61.5 °F 29.8 in SSE 3.8 mph 9.8 mph 58% 0 in 274 W/m2
18:50 78.3 °F 61.9 °F 29.8 in SSE 3.8 mph 9.8 mph 57% 0 in 253 W/m2
18:55 78.4 °F 61 °F 29.8 in SSE 3.8 mph 10.7 mph 55% 0 in 251 W/m2
19:00 78.8 °F 60.8 °F 29.8 in SSE 3.8 mph 10.7 mph 54% 0 in 221 W/m2
19:05 79.2 °F 60.6 °F 29.8 in SSE 3.8 mph 9.2 mph 53% 0 in 201 W/m2
19:10 78.3 °F 60.8 °F 29.8 in SSE 5.4 mph 9.8 mph 55% 0 in 93 W/m2
19:15 77.7 °F 59.7 °F 29.8 in SE 2.2 mph 9.8 mph 54% 0 in 180 W/m2
19:20 78.4 °F 60.4 °F 29.9 in SE 5.4 mph 8.3 mph 54% 0 in 172 W/m2
19:25 77.9 °F 60.4 °F 29.9 in SE 3.8 mph 9.2 mph 55% 0 in 161 W/m2
19:30 77.4 °F 61.5 °F 29.9 in ESE 4.5 mph 10.7 mph 58% 0 in 121 W/m2
19:35 76.1 °F 61.7 °F 29.9 in SE 2.2 mph 12.1 mph 61% 0 in 102 W/m2
19:40 74.7 °F 62.1 °F 29.9 in SSE 6.9 mph 12.1 mph 65% 0 in 106 W/m2
19:45 74.3 °F 62.8 °F 29.9 in South 3.8 mph 12.1 mph 67% 0 in 108 W/m2
19:50 74.1 °F 63 °F 29.9 in SSE 2.2 mph 12.1 mph 68% 0 in 41 W/m2
19:55 72.1 °F 61.3 °F 29.9 in SSE 3.8 mph 12.1 mph 69% 0 in 70 W/m2
20:00 72.3 °F 60.8 °F 29.9 in SSE 5.4 mph 12.1 mph 67% 0 in 76 W/m2
20:05 72.5 °F 61 °F 29.9 in SSE 6.9 mph 10.7 mph 67% 0 in 44 W/m2
20:10 71.6 °F 61 °F 29.9 in SE 4.5 mph 9.8 mph 69% 0 in 22 W/m2
20:15 70.5 °F 61.2 °F 29.9 in SE 3.8 mph 9.8 mph 72% 0 in 25 W/m2
20:20 70.3 °F 61 °F 29.9 in SSE 1.6 mph 9.8 mph 72% 0 in 12 W/m2
20:25 69.8 °F 60.4 °F 29.9 in SSE 5.4 mph 9.8 mph 72% 0 in 10 W/m2
20:30 69.6 °F 61 °F 29.9 in SSE 3.1 mph 9.2 mph 74% 0 in 5 W/m2
20:35 69.3 °F 61 °F 29.9 in SE 3.1 mph 7.6 mph 75% 0 in 3 W/m2
20:45 68.9 °F 61.3 °F 29.9 in Calm   5.4 mph 77% 0 in 0 W/m2
20:50 68.7 °F 62.1 °F 29.9 in SSE 2.2 mph 5.4 mph 79% 0 in 0 W/m2
20:55 68.4 °F 62.8 °F 29.9 in South 2.2 mph 6.9 mph 82% 0 in 0 W/m2
21:00 68.4 °F 63 °F 29.9 in South 3.1 mph 6.9 mph 83% 0 in 0 W/m2
21:05 68.2 °F 62.8 °F 29.9 in South 3.1 mph 6.9 mph 83% 0 in 0 W/m2
21:10 68.2 °F 62.8 °F 29.9 in South 3.1 mph 6.9 mph 83% 0 in 0 W/m2
21:15 68.2 °F 63.1 °F 29.9 in South 1.6 mph 5.4 mph 84% 0 in 0 W/m2
21:20 68 °F 63 °F 29.9 in SSE 0.7 mph 5.4 mph 84% 0 in 0 W/m2
21:25 67.8 °F 63.1 °F 29.9 in SE 4.5 mph 5.4 mph 85% 0 in 0 W/m2
21:30 67.6 °F 63.3 °F 29.9 in SSE 3.1 mph 6.9 mph 86% 0 in 0 W/m2
21:35 67.6 °F 63.3 °F 29.9 in SSE 1.6 mph 6.9 mph 86% 0 in 0 W/m2
21:40 67.6 °F 63.3 °F 29.9 in SSE 1.6 mph 6 mph 86% 0 in 0 W/m2
21:45 67.5 °F 63.5 °F 29.9 in SSE 2.2 mph 4.5 mph 87% 0 in 0 W/m2
21:50 67.5 °F 63.5 °F 29.9 in South 3.1 mph 4.5 mph 87% 0 in 0 W/m2
21:55 67.1 °F 63.1 °F 29.9 in South 1.6 mph 4.5 mph 87% 0 in 0 W/m2
22:00 67.1 °F 63.5 °F 29.9 in South 2.2 mph 5.4 mph 88% 0 in 0 W/m2
22:05 67.1 °F 63.5 °F 29.9 in South 2.2 mph 5.4 mph 88% 0 in 0 W/m2
22:10 66.9 °F 63.3 °F 29.9 in SSE 0.7 mph 4.5 mph 88% 0 in 0 W/m2
22:20 66.7 °F 62.8 °F 29.9 in SE 1.6 mph 3.8 mph 87% 0 in 0 W/m2
22:25 66.7 °F 62.8 °F 29.9 in SSE 0.7 mph 3.8 mph 87% 0 in 0 W/m2
22:30 66.7 °F 62.8 °F 29.9 in SSE 2.2 mph 3.1 mph 87% 0 in 0 W/m2
22:35 66.7 °F 63.1 °F 29.9 in South 0.7 mph 3.1 mph 88% 0 in 0 W/m2
22:40 66.7 °F 63.1 °F 29.9 in South 0.7 mph 3.8 mph 88% 0 in 0 W/m2
22:45 66.6 °F 63 °F 29.9 in SSW 0.7 mph 3.8 mph 88% 0 in 0 W/m2
22:50 66.4 °F 62.8 °F 29.9 in SSW 2.2 mph 3.1 mph 88% 0 in 0 W/m2
22:55 66.2 °F 62.6 °F 29.9 in SW 1.6 mph 3.8 mph 88% 0 in 0 W/m2
23:00 66.2 °F 63 °F 29.9 in SW 3.1 mph 4.5 mph 89% 0 in 0 W/m2
23:05 66 °F 63 °F 29.9 in SW 1.6 mph 4.5 mph 90% 0 in 0 W/m2
23:10 65.7 °F 62.8 °F 29.9 in SW 1.6 mph 4.5 mph 90% 0 in 0 W/m2
23:15 65.7 °F 62.8 °F 29.9 in SSW 1.6 mph 3.1 mph 90% 0 in 0 W/m2
23:20 65.7 °F 62.8 °F 29.9 in SSW 0.7 mph 3.8 mph 90% 0 in 0 W/m2
23:25 65.5 °F 62.4 °F 29.9 in SW 0.7 mph 3.8 mph 90% 0 in 0 W/m2
23:30 65.3 °F 62.6 °F 29.9 in SW 0.7 mph 3.8 mph 91% 0 in 0 W/m2
23:35 65.1 °F 62.4 °F 29.9 in SW 0.7 mph 3.8 mph 91% 0 in 0 W/m2
23:40 64.8 °F 62.1 °F 29.9 in Calm   3.1 mph 91% 0 in 0 W/m2
23:45 64.8 °F 62.1 °F 29.9 in Calm   2.2 mph 91% 0 in 0 W/m2
23:50 64.6 °F 61.9 °F 29.9 in North 0.7 mph 2.2 mph 91% 0 in 0 W/m2
23:55 64.2 °F 61.5 °F 29.9 in Calm   1.6 mph 91% 0 in 0 W/m2
Northern Hawkes Bay. New Zealand Historic Data
Compliments of Weather Underground - 2 mb